Time;durP1;ratioP1;P1;durP2;ratioP2;P2;SDS_P1;SDS_P2;PMS_P1;PMS_P2;Temp;Humidity;BMP_temperature;BMP_pressure;BME280_temperature;BME280_humidity;BME280_pressure;Samples;Min_cycle;Max_cycle;Signal;HPM_P1;HPM_P2
2023/07/28 00:02:05;;;;;;;9.43;4.30;;;;;;;18.25;48.16;95312.72;5054120;28;20029;-76
2023/07/28 00:04:30;;;;;;;14.68;4.68;;;;;;;18.46;48.32;95331.66;5037212;28;20029;-77
2023/07/28 00:06:56;;;;;;;10.20;5.20;;;;;;;18.34;48.11;95318.09;5077805;28;20017;-78
2023/07/28 00:09:23;;;;;;;8.45;5.45;;;;;;;18.18;48.21;95287.47;5051349;28;20204;-78
2023/07/28 00:11:49;;;;;;;9.07;5.03;;;;;;;18.48;48.32;95338.28;5060095;28;20029;-78
2023/07/28 00:14:14;;;;;;;9.35;5.13;;;;;;;18.18;48.49;95301.69;5044652;28;20037;-78
2023/07/28 00:16:40;;;;;;;7.90;5.05;;;;;;;18.47;48.49;95342.06;5084246;28;20013;-78
2023/07/28 00:19:05;;;;;;;11.45;5.10;;;;;;;18.14;48.92;95308.81;5041396;28;20409;-78
2023/07/28 00:21:31;;;;;;;8.32;4.90;;;;;;;18.26;49.08;95353.78;5041469;28;20024;-78
2023/07/28 00:23:56;;;;;;;10.25;4.88;;;;;;;18.17;48.87;95321.56;5041490;28;20037;-78
2023/07/28 00:26:22;;;;;;;13.32;4.53;;;;;;;18.05;48.96;95298.06;5064811;28;20032;-77
2023/07/28 00:28:47;;;;;;;8.35;4.15;;;;;;;18.20;49.34;95331.69;5056370;28;20028;-77
2023/07/28 00:31:13;;;;;;;9.50;3.63;;;;;;;18.25;49.27;95328.03;5074824;28;20029;-77
2023/07/28 00:33:38;;;;;;;8.63;3.90;;;;;;;18.14;49.33;95319.53;5060496;28;20092;-76
2023/07/28 00:36:04;;;;;;;4.15;3.45;;;;;;;18.23;49.32;95331.06;5038051;28;20039;-76
2023/07/28 00:38:29;;;;;;;8.18;3.35;;;;;;;18.11;49.51;95336.28;5034189;28;20033;-76
2023/07/28 00:40:55;;;;;;;6.78;3.08;;;;;;;17.89;49.91;95318.44;5056213;28;20030;-78
2023/07/28 00:43:20;;;;;;;6.72;3.33;;;;;;;17.92;49.13;95330.44;5057302;28;20025;-78
2023/07/28 00:45:45;;;;;;;4.72;3.35;;;;;;;17.99;48.72;95333.44;5035240;28;20045;-76
2023/07/28 00:48:14;;;;;;;6.53;3.72;;;;;;;18.08;48.57;95343.03;5033787;28;20079;-76
2023/07/28 00:50:43;;;;;;;4.90;3.00;;;;;;;17.96;48.45;95320.66;5051554;28;20021;-77
2023/07/28 00:53:09;;;;;;;5.75;2.92;;;;;;;17.95;48.42;95311.00;5057681;28;20041;-77
2023/07/28 00:55:34;;;;;;;7.50;3.58;;;;;;;18.01;48.78;95313.22;5059738;28;20025;-77
2023/07/28 00:58:00;;;;;;;6.43;3.35;;;;;;;18.01;48.39;95294.44;5051635;28;20492;-76
2023/07/28 01:00:25;;;;;;;7.68;3.95;;;;;;;17.79;48.80;95307.22;5032270;28;20064;-75
2023/07/28 01:02:51;;;;;;;7.80;4.45;;;;;;;17.90;48.17;95308.50;5038373;28;20028;-77
2023/07/28 01:05:16;;;;;;;4.82;3.50;;;;;;;17.77;48.39;95307.56;5076773;28;20036;-77
2023/07/28 01:08:11;;;;;;;14.45;4.38;;;;;;;18.05;48.30;95340.22;5059643;28;20037;-78
2023/07/28 01:10:39;;;;;;;6.18;4.22;;;;;;;18.02;48.41;95338.16;5043207;28;20045;-78
2023/07/28 01:13:04;;;;;;;8.55;4.68;;;;;;;17.77;48.29;95290.69;5076971;28;20455;-78
2023/07/28 01:15:29;;;;;;;9.63;4.05;;;;;;;17.96;48.55;95350.16;5076919;28;20025;-78
2023/07/28 01:17:55;;;;;;;8.68;4.00;;;;;;;17.76;49.26;95338.16;5059244;28;20039;-78
2023/07/28 01:20:23;;;;;;;6.65;4.00;;;;;;;17.83;49.00;95337.69;5058608;28;20044;-78
2023/07/28 01:22:58;;;;;;;7.95;4.32;;;;;;;17.91;49.24;95345.75;5058954;28;20119;-78
2023/07/28 01:25:32;;;;;;;15.93;4.63;;;;;;;17.80;49.15;95338.31;5059861;22;20056;-85
2023/07/28 01:28:00;;;;;;;7.80;3.75;;;;;;;15.89;49.22;95056.94;5031100;28;20038;-83
2023/07/28 01:30:27;;;;;;;9.15;3.83;;;;;;;17.49;49.14;95308.91;5032174;28;20107;-84
2023/07/28 01:32:57;;;;;;;10.50;4.55;;;;;;;17.63;49.24;95323.00;5030434;28;20051;-84
2023/07/28 01:35:26;;;;;;;6.22;3.20;;;;;;;14.83;49.74;94918.88;5032464;28;20429;-84
2023/07/28 01:37:51;;;;;;;8.82;4.15;;;;;;;17.63;49.61;95345.22;5040804;28;20055;-86
2023/07/28 01:40:18;;;;;;;5.72;3.53;;;;;;;15.53;50.13;95060.56;5042169;28;20065;-86
2023/07/28 01:42:43;;;;;;;15.02;4.70;;;;;;;16.16;50.17;95155.72;5039109;28;20055;-86
2023/07/28 01:45:09;;;;;;;8.90;3.63;;;;;;;17.21;50.39;95317.22;5041561;28;20041;-86
2023/07/28 01:47:34;;;;;;;6.78;3.08;;;;;;;17.24;50.08;95326.53;5041889;28;20033;-86
2023/07/28 01:50:00;;;;;;;6.85;4.38;;;;;;;16.60;50.42;95240.41;5042753;28;20025;-86
2023/07/28 01:52:25;;;;;;;7.47;3.58;;;;;;;17.11;50.41;95304.09;5043325;28;20033;-86
2023/07/28 01:54:51;;;;;;;5.90;3.75;;;;;;;16.37;50.62;95188.84;5036390;28;20030;-86
2023/07/28 01:57:17;;;;;;;10.10;3.83;;;;;;;17.40;50.14;95341.06;5031302;28;20037;-87
2023/07/28 01:59:42;;;;;;;9.35;4.00;;;;;;;17.05;50.78;95288.47;5040947;28;20044;-87
2023/07/28 02:02:07;;;;;;;9.52;4.13;;;;;;;16.91;50.63;95259.13;5041922;28;20147;-86
2023/07/28 02:04:33;;;;;;;9.57;3.97;;;;;;;16.98;50.25;95264.81;5042519;28;20439;-86
2023/07/28 02:06:58;;;;;;;5.97;3.08;;;;;;;16.71;51.07;95308.69;5033566;28;20048;-84
2023/07/28 02:09:24;;;;;;;10.07;3.72;;;;;;;17.11;51.00;95330.09;5031565;28;20044;-84
2023/07/28 02:11:49;;;;;;;7.53;3.50;;;;;;;17.16;51.06;95330.78;5051033;28;20372;-84
2023/07/28 02:14:14;;;;;;;8.00;3.90;;;;;;;16.41;51.52;95216.56;5058623;28;20095;-84
2023/07/28 02:16:40;;;;;;;13.90;5.05;;;;;;;16.92;51.70;95301.69;5028558;28;20565;-83
2023/07/28 02:19:06;;;;;;;10.30;4.50;;;;;;;16.99;51.45;95306.59;5029513;28;20054;-84
2023/07/28 02:21:31;;;;;;;9.93;3.78;;;;;;;17.21;51.77;95343.22;5014963;28;20038;-85
2023/07/28 02:23:57;;;;;;;6.78;3.70;;;;;;;17.14;50.94;95332.97;5030606;28;20029;-84
2023/07/28 02:26:22;;;;;;;12.02;2.97;;;;;;;16.45;49.94;95220.19;5049606;28;20033;-83
2023/07/28 02:28:48;;;;;;;8.82;4.10;;;;;;;16.05;52.09;95206.00;5050582;28;20029;-84
2023/07/28 02:31:13;;;;;;;7.50;2.90;;;;;;;16.79;51.11;95305.25;5051135;28;20029;-84
2023/07/28 02:33:38;;;;;;;3.85;2.28;;;;;;;16.96;50.50;95358.09;5050736;28;20033;-84
2023/07/28 02:36:04;;;;;;;4.72;2.60;;;;;;;16.51;50.88;95285.88;5048929;28;20037;-84
2023/07/28 02:38:30;;;;;;;10.52;3.53;;;;;;;15.59;51.76;95134.16;5050893;28;20025;-83
2023/07/28 02:40:55;;;;;;;10.60;3.33;;;;;;;16.47;51.80;95262.72;5032925;28;20388;-84
2023/07/28 02:43:21;;;;;;;8.52;3.08;;;;;;;16.61;51.56;95274.16;5032554;28;20140;-84
2023/07/28 02:45:57;;;;;;;4.57;2.47;;;;;;;16.92;50.25;95307.06;5034826;28;20029;-86
2023/07/28 02:48:22;;;;;;;5.20;2.63;;;;;;;16.80;49.56;95287.28;5054286;28;20542;-83
2023/07/28 02:50:50;;;;;;;6.80;2.35;;;;;;;16.26;50.25;95257.09;5029604;28;20044;-85
2023/07/28 02:53:15;;;;;;;3.13;2.30;;;;;;;16.77;50.48;95339.59;5051814;28;20419;-84
2023/07/28 02:55:42;;;;;;;8.32;3.00;;;;;;;16.96;50.64;95345.50;5049496;28;20041;-84
2023/07/28 02:58:08;;;;;;;8.45;2.78;;;;;;;16.60;51.17;95296.63;5050327;28;20422;-84
2023/07/28 03:00:33;;;;;;;6.93;3.17;;;;;;;15.99;52.25;95239.34;5032318;28;20044;-83
2023/07/28 03:02:59;;;;;;;10.00;2.60;;;;;;;16.65;52.38;95330.53;5032303;28;20468;-85
2023/07/28 03:05:24;;;;;;;9.00;3.20;;;;;;;16.06;52.43;95244.25;5032906;28;20048;-85
2023/07/28 03:07:50;;;;;;;6.03;3.10;;;;;;;16.81;52.50;95353.16;5034932;28;20056;-85
2023/07/28 03:10:18;;;;;;;8.02;2.90;;;;;;;16.86;51.84;95353.03;5051006;28;20037;-83
2023/07/28 03:12:43;;;;;;;6.88;3.00;;;;;;;16.32;51.80;95269.28;5050999;28;20094;-83
2023/07/28 03:15:09;;;;;;;17.10;3.00;;;;;;;16.81;52.16;95353.16;5032303;28;20032;-84
2023/07/28 03:17:34;;;;;;;5.63;3.08;;;;;;;16.61;52.49;95345.66;5060305;28;20041;-87
2023/07/28 03:20:00;;;;;;;7.05;3.17;;;;;;;16.35;52.48;95299.97;5042873;28;20099;-86
2023/07/28 03:22:25;;;;;;;8.23;2.83;;;;;;;16.14;52.41;95262.22;5042637;28;20042;-86
2023/07/28 03:24:51;;;;;;;9.43;3.08;;;;;;;16.35;52.69;95300.75;5047116;28;20057;-86
2023/07/28 03:27:16;;;;;;;7.47;3.35;;;;;;;16.18;52.44;95266.66;5081433;28;20044;-86
2023/07/28 03:29:43;;;;;;;9.00;3.10;;;;;;;16.82;52.46;95350.19;5065528;28;20085;-86
2023/07/28 03:32:08;;;;;;;13.57;3.40;;;;;;;15.85;52.37;95213.75;5065786;28;20082;-86
2023/07/28 03:34:33;;;;;;;10.75;3.00;;;;;;;16.47;52.61;95325.09;5064719;28;20092;-86
2023/07/28 03:36:59;;;;;;;9.02;3.10;;;;;;;16.41;52.45;95320.16;5047284;28;20045;-87
2023/07/28 03:39:25;;;;;;;17.08;4.32;;;;;;;16.12;52.28;95283.94;5080503;28;20029;-86
2023/07/28 03:41:50;;;;;;;9.35;3.72;;;;;;;16.76;52.56;95366.69;5050706;28;20032;-87
2023/07/28 03:44:16;;;;;;;9.50;4.25;;;;;;;16.72;52.35;95352.31;5064341;28;20033;-86
2023/07/28 03:46:41;;;;;;;14.43;3.90;;;;;;;15.21;52.08;95103.56;5072747;28;20049;-84
2023/07/28 03:49:07;;;;;;;8.57;3.88;;;;;;;16.70;52.14;95333.09;5056975;28;20064;-86
2023/07/28 03:51:32;;;;;;;12.80;3.97;;;;;;;16.12;52.00;95241.13;5065477;28;20032;-86
2023/07/28 03:53:58;;;;;;;10.45;4.03;;;;;;;16.48;51.93;95293.72;5065224;28;20037;-86
2023/07/28 03:56:23;;;;;;;11.65;3.88;;;;;;;16.62;51.84;95317.78;5064592;28;20418;-87
2023/07/28 03:58:48;;;;;;;7.80;3.58;;;;;;;16.76;52.03;95380.06;5066427;28;20113;-86
2023/07/28 04:01:14;;;;;;;9.77;3.97;;;;;;;16.57;52.08;95359.63;5069871;28;20037;-87
2023/07/28 04:03:40;;;;;;;9.10;4.28;;;;;;;16.67;51.89;95355.13;5067184;28;20056;-86
2023/07/28 04:06:10;;;;;;;11.02;4.43;;;;;;;15.70;52.14;95239.78;5048355;28;20098;-86
2023/07/28 04:08:36;;;;;;;13.80;4.70;;;;;;;16.50;52.29;95356.59;5033876;28;20055;-86
2023/07/28 04:11:01;;;;;;;15.23;4.95;;;;;;;16.18;52.52;95320.16;5050598;28;20172;-87
2023/07/28 04:13:27;;;;;;;8.52;4.40;;;;;;;15.68;52.79;95257.19;5066530;28;20056;-86
2023/07/28 04:15:52;;;;;;;10.57;4.70;;;;;;;16.44;52.34;95363.16;5068813;28;20037;-86
2023/07/28 04:18:18;;;;;;;7.07;3.92;;;;;;;16.30;52.59;95350.94;5077513;28;20036;-86
2023/07/28 04:20:43;;;;;;;13.55;4.82;;;;;;;16.47;52.63;95378.63;5080338;28;20483;-86
2023/07/28 04:23:08;;;;;;;8.93;4.55;;;;;;;16.14;52.42;95327.25;5049845;28;20483;-86
2023/07/28 04:25:34;;;;;;;15.02;4.55;;;;;;;15.89;52.93;95306.44;5050771;28;20503;-86
2023/07/28 04:27:59;;;;;;;10.45;3.75;;;;;;;16.14;52.62;95324.56;5050387;28;20036;-86
2023/07/28 04:30:25;;;;;;;16.80;5.40;;;;;;;16.55;52.56;95385.13;5065732;28;20048;-86
2023/07/28 04:32:50;;;;;;;6.15;4.38;;;;;;;16.47;52.39;95369.81;5051520;28;20112;-86
2023/07/28 04:35:16;;;;;;;10.95;4.05;;;;;;;16.39;52.42;95374.00;5066365;28;20036;-86
2023/07/28 04:37:41;;;;;;;8.40;3.90;;;;;;;15.75;52.60;95258.34;5035500;28;20033;-84
2023/07/28 04:40:08;;;;;;;9.95;4.38;;;;;;;16.42;52.10;95359.19;5053534;28;20033;-84
2023/07/28 04:42:34;;;;;;;14.15;4.50;;;;;;;15.88;52.05;95256.72;5053358;28;20037;-84
2023/07/28 04:44:59;;;;;;;7.53;3.90;;;;;;;15.70;51.39;95221.06;5053792;28;20118;-83
2023/07/28 04:47:25;;;;;;;9.88;4.05;;;;;;;16.63;51.67;95371.00;5035220;28;20422;-83
2023/07/28 04:49:50;;;;;;;7.60;4.22;;;;;;;16.18;51.89;95298.75;5071149;28;20275;-84
2023/07/28 04:52:16;;;;;;;6.18;4.15;;;;;;;15.12;51.09;95121.38;5048813;28;20096;-84
2023/07/28 04:54:41;;;;;;;7.65;4.90;;;;;;;15.93;51.12;95255.81;5037453;28;20120;-84
2023/07/28 04:57:07;;;;;;;7.25;4.05;;;;;;;16.65;51.18;95382.22;5053076;28;20108;-85
2023/07/28 04:59:32;;;;;;;8.82;4.07;;;;;;;16.51;51.10;95339.44;5053197;28;20044;-83
2023/07/28 05:01:57;;;;;;;7.47;4.80;;;;;;;16.75;51.16;95354.38;5034697;28;20073;-84
2023/07/28 05:04:23;;;;;;;11.63;4.97;;;;;;;16.69;51.19;95348.38;5054429;28;20106;-84
2023/07/28 05:06:48;;;;;;;12.82;5.25;;;;;;;16.49;50.74;95296.09;5036090;28;20481;-84
2023/07/28 05:09:14;;;;;;;19.40;4.40;;;;;;;16.44;50.97;95274.84;5051592;28;20039;-83
2023/07/28 05:11:39;;;;;;;10.68;4.30;;;;;;;17.22;51.15;95396.53;5052514;28;20079;-83
2023/07/28 05:14:06;;;;;;;11.07;3.83;;;;;;;16.83;50.70;95333.00;5051836;28;20099;-85
2023/07/28 05:16:32;;;;;;;7.20;4.28;;;;;;;16.54;50.96;95268.44;5056615;28;20037;-86
2023/07/28 05:18:57;;;;;;;15.38;4.53;;;;;;;17.24;50.64;95361.38;5061045;28;20079;-86
2023/07/28 05:21:22;;;;;;;11.07;4.63;;;;;;;16.89;50.76;95315.69;5062314;28;20376;-86
2023/07/28 05:23:48;;;;;;;7.38;4.40;;;;;;;17.25;49.91;95361.03;5044229;28;20118;-86
2023/07/28 05:26:13;;;;;;;13.68;4.55;;;;;;;17.04;50.06;95337.81;5063333;28;20029;-86
2023/07/28 05:28:39;;;;;;;16.67;4.47;;;;;;;16.63;50.05;95271.94;5079740;28;20029;-86
2023/07/28 05:31:05;;;;;;;21.33;5.10;;;;;;;17.04;49.91;95340.50;5068860;28;20017;-88
2023/07/28 05:33:31;;;;;;;8.77;4.57;;;;;;;17.08;49.74;95365.56;5055278;28;20025;-88
2023/07/28 05:36:03;;;;;;;10.82;4.68;;;;;;;17.35;49.83;95387.59;5087711;28;20037;-88
2023/07/28 05:38:29;;;;;;;19.58;5.93;;;;;;;16.71;50.54;95299.84;5055300;28;20108;-89
2023/07/28 05:41:02;;;;;;;9.77;5.53;;;;;;;17.45;50.32;95385.72;5072361;28;20036;-88
2023/07/28 05:43:29;;;;;;;14.05;5.47;;;;;;;17.45;50.15;95381.16;5060909;28;20069;-90
2023/07/28 05:45:55;;;;;;;17.85;5.15;;;;;;;17.20;49.95;95326.34;5068235;28;20041;-86
2023/07/28 05:48:21;;;;;;;11.82;5.30;;;;;;;16.86;50.23;95294.13;5038712;28;20049;-86
2023/07/28 05:50:47;;;;;;;13.38;5.13;;;;;;;17.17;49.79;95302.84;5069317;28;20104;-87
2023/07/28 05:53:13;;;;;;;22.80;4.95;;;;;;;17.08;49.87;95287.88;5069067;28;20391;-86
2023/07/28 05:55:39;;;;;;;14.98;4.57;;;;;;;17.08;50.03;95315.47;5035194;28;20171;-86
2023/07/28 05:58:05;;;;;;;15.93;4.90;;;;;;;16.91;49.80;95267.19;5052903;28;20041;-87
2023/07/28 06:00:31;;;;;;;13.48;4.47;;;;;;;15.68;49.88;95065.50;5034446;28;20379;-85
2023/07/28 06:02:57;;;;;;;11.48;4.43;;;;;;;17.71;50.34;95359.75;5053141;28;20463;-86
2023/07/28 06:05:22;;;;;;;15.73;4.32;;;;;;;17.48;50.28;95304.66;5034938;28;20036;-86
2023/07/28 06:07:48;;;;;;;22.27;5.03;;;;;;;17.45;50.90;95319.47;5034877;28;20381;-87
2023/07/28 06:10:13;;;;;;;11.88;4.53;;;;;;;16.69;50.54;95178.88;5051643;28;20033;-86
2023/07/28 06:12:39;;;;;;;14.20;4.50;;;;;;;17.93;50.21;95359.63;5067090;28;20048;-86
2023/07/28 06:15:05;;;;;;;9.45;4.40;;;;;;;17.23;49.67;95236.50;5068234;28;20036;-86
2023/07/28 06:17:30;;;;;;;13.25;5.68;;;;;;;17.76;49.70;95305.19;5035082;28;20032;-87
2023/07/28 06:19:56;;;;;;;16.08;6.22;;;;;;;17.53;49.10;95264.28;5034649;28;20481;-87
2023/07/28 06:22:21;;;;;;;9.35;5.63;;;;;;;17.66;48.90;95263.38;5036573;28;20036;-87
2023/07/28 06:24:48;;;;;;;13.93;5.80;;;;;;;17.35;49.85;95226.75;5035321;28;20049;-87
2023/07/28 06:27:14;;;;;;;11.18;4.80;;;;;;;17.96;49.20;95304.53;5066525;22;20519;-76
2023/07/28 06:29:39;;;;;;;9.20;4.63;;;;;;;18.09;49.20;95322.38;5063093;28;20086;-76
2023/07/28 06:32:05;;;;;;;9.80;4.03;;;;;;;18.28;49.09;95344.31;5050431;28;20033;-76
2023/07/28 06:34:31;;;;;;;10.15;4.40;;;;;;;18.39;48.46;95350.91;5033341;28;20095;-76
2023/07/28 06:36:57;;;;;;;16.00;4.80;;;;;;;18.22;48.52;95323.31;5031824;28;20037;-75
2023/07/28 06:39:24;;;;;;;24.08;5.30;;;;;;;18.26;48.46;95308.16;5016364;28;20083;-75
2023/07/28 06:41:49;;;;;;;31.08;5.47;;;;;;;18.54;47.79;95327.38;5030080;28;20082;-76
2023/07/28 06:44:15;;;;;;;8.13;4.78;;;;;;;18.58;47.81;95336.38;5017989;28;20059;-75
2023/07/28 06:46:40;;;;;;;10.95;4.28;;;;;;;18.72;47.87;95347.72;5050357;28;20120;-75
2023/07/28 06:49:05;;;;;;;15.00;5.57;;;;;;;18.59;47.71;95324.53;5031633;28;20029;-75
2023/07/28 06:51:31;;;;;;;13.98;5.45;;;;;;;18.61;47.56;95320.44;5032278;28;20070;-76
2023/07/28 06:53:56;;;;;;;8.95;5.00;;;;;;;18.87;47.77;95355.25;5031898;28;20427;-76
2023/07/28 06:56:22;;;;;;;11.10;4.60;;;;;;;18.57;47.37;95332.13;5032885;28;20037;-75
2023/07/28 06:58:48;;;;;;;19.13;5.20;;;;;;;18.66;47.30;95325.63;5033021;28;20020;-76
2023/07/28 07:01:13;;;;;;;10.82;4.88;;;;;;;18.83;47.21;95338.22;5052869;28;20032;-76
2023/07/28 07:03:38;;;;;;;8.85;3.92;;;;;;;18.78;47.00;95331.09;5036389;28;20071;-75
2023/07/28 07:06:04;;;;;;;8.52;4.85;;;;;;;18.87;47.30;95325.72;5036728;28;20033;-77
2023/07/28 07:08:29;;;;;;;10.13;4.53;;;;;;;18.82;47.05;95315.16;5036785;28;20033;-76
2023/07/28 07:10:55;;;;;;;11.13;4.25;;;;;;;18.89;47.69;95329.66;5053814;28;20037;-76
2023/07/28 07:13:20;;;;;;;9.48;4.32;;;;;;;18.96;47.82;95329.16;5035667;28;20082;-76
2023/07/28 07:15:46;;;;;;;8.43;4.50;;;;;;;18.84;47.74;95308.31;5054439;28;20025;-76
2023/07/28 07:18:12;;;;;;;13.95;5.00;;;;;;;18.84;47.02;95307.56;5069096;28;20029;-76
2023/07/28 07:20:38;;;;;;;10.27;4.63;;;;;;;19.06;46.83;95347.63;5035716;28;20021;-76
2023/07/28 07:23:07;;;;;;;6.30;4.03;;;;;;;19.11;46.63;95331.31;5035764;28;20052;-75
2023/07/28 07:25:33;;;;;;;7.05;3.65;;;;;;;19.16;47.13;95344.56;5049563;28;20024;-76
2023/07/28 07:27:58;;;;;;;6.18;4.03;;;;;;;18.87;47.15;95307.69;5048447;28;20048;-76
2023/07/28 07:30:24;;;;;;;8.55;4.22;;;;;;;19.14;46.98;95338.75;5035510;28;20029;-76
2023/07/28 07:32:50;;;;;;;10.25;4.25;;;;;;;18.99;46.75;95312.41;5052386;28;20029;-76
2023/07/28 07:35:15;;;;;;;10.63;3.83;;;;;;;19.31;46.63;95351.28;5035944;28;20561;-77
2023/07/28 07:37:41;;;;;;;8.80;4.40;;;;;;;19.39;45.94;95352.34;5036737;28;20037;-76
2023/07/28 07:40:07;;;;;;;8.40;3.53;;;;;;;19.44;45.67;95341.44;5053759;28;20041;-76
2023/07/28 07:43:05;;;;;;;16.25;4.32;;;;;;;19.58;46.07;95356.25;5039005;28;20091;-77
2023/07/28 07:45:31;;;;;;;10.90;3.35;;;;;;;19.57;45.54;95343.91;5019095;28;20430;-75
2023/07/28 07:47:58;;;;;;;7.47;3.65;;;;;;;19.69;45.41;95355.84;5035246;28;20040;-76
2023/07/28 07:50:23;;;;;;;13.30;4.07;;;;;;;19.82;45.15;95352.13;5054594;28;20029;-76
2023/07/28 07:52:49;;;;;;;7.30;3.75;;;;;;;19.55;45.04;95323.81;5034392;28;20033;-76
2023/07/28 07:55:14;;;;;;;9.23;3.72;;;;;;;19.67;44.54;95342.75;5027493;28;20091;-76
2023/07/28 07:57:40;;;;;;;5.40;3.40;;;;;;;19.72;44.78;95323.72;5023937;28;20036;-76
2023/07/28 08:00:06;;;;;;;4.72;3.20;;;;;;;19.80;44.46;95348.97;5054199;28;20045;-76
2023/07/28 08:02:32;;;;;;;13.68;3.45;;;;;;;19.73;44.41;95341.44;5035667;28;20067;-76
2023/07/28 08:04:57;;;;;;;5.43;3.42;;;;;;;19.63;44.95;95334.53;5035488;28;20060;-75
2023/07/28 08:07:23;;;;;;;4.65;3.30;;;;;;;19.90;44.53;95362.84;5040377;28;20045;-78
2023/07/28 08:09:49;;;;;;;9.88;3.55;;;;;;;19.79;43.68;95352.78;5038856;28;20059;-78
2023/07/28 08:12:15;;;;;;;7.30;3.45;;;;;;;19.91;43.76;95352.88;5057325;28;20037;-78
2023/07/28 08:14:41;;;;;;;6.63;3.25;;;;;;;19.94;43.21;95338.75;5040143;28;20037;-78
2023/07/28 08:17:07;;;;;;;4.60;3.03;;;;;;;19.85;43.80;95308.41;5059100;28;20040;-78
2023/07/28 08:19:33;;;;;;;8.07;3.47;;;;;;;20.10;44.12;95320.88;5038455;28;20076;-78
2023/07/28 08:21:58;;;;;;;5.43;3.20;;;;;;;20.24;43.95;95332.16;5057836;28;20040;-78
2023/07/28 08:24:23;;;;;;;7.43;2.63;;;;;;;20.29;42.99;95328.47;5037323;28;20120;-78
2023/07/28 08:26:49;;;;;;;7.50;2.90;;;;;;;20.42;42.87;95338.19;5042014;28;20060;-78
2023/07/28 08:29:15;;;;;;;8.75;2.90;;;;;;;20.32;43.50;95311.66;5059321;28;20039;-78
2023/07/28 08:31:41;;;;;;;6.10;3.15;;;;;;;20.47;42.93;95321.03;5039428;28;20052;-78
2023/07/28 08:34:07;;;;;;;7.63;3.20;;;;;;;20.65;42.38;95331.31;5054634;28;20044;-78
2023/07/28 08:36:33;;;;;;;13.35;3.30;;;;;;;20.36;43.68;95289.16;5055171;28;20031;-78
2023/07/28 08:38:59;;;;;;;12.57;3.30;;;;;;;20.80;43.19;95336.06;5028725;28;20603;-78
2023/07/28 08:41:25;;;;;;;7.82;3.00;;;;;;;20.75;42.75;95306.63;5030520;28;20036;-78
2023/07/28 08:43:51;;;;;;;7.72;2.90;;;;;;;20.90;42.91;95320.59;5056902;28;20017;-78
2023/07/28 08:46:18;;;;;;;9.13;3.15;;;;;;;20.90;42.25;95320.59;5052289;28;20467;-78
2023/07/28 08:48:43;;;;;;;6.63;3.10;;;;;;;21.02;42.12;95324.06;5061383;28;20032;-78
2023/07/28 08:51:11;;;;;;;4.93;3.13;;;;;;;21.03;41.68;95332.94;5037253;28;20555;-78
2023/07/28 08:53:37;;;;;;;12.85;3.88;;;;;;;20.63;41.62;95260.00;5037957;28;20029;-78
2023/07/28 08:56:03;;;;;;;7.00;3.53;;;;;;;21.04;42.64;95300.25;5034180;28;20040;-77
2023/07/28 08:58:30;;;;;;;5.50;2.80;;;;;;;21.12;42.19;95301.28;5054322;28;20024;-78
2023/07/28 09:00:55;;;;;;;11.23;3.10;;;;;;;21.30;42.24;95310.72;5036804;28;20029;-78
2023/07/28 09:03:22;;;;;;;7.97;3.20;;;;;;;21.26;41.46;95307.16;5039728;28;20023;-77
2023/07/28 09:05:48;;;;;;;18.30;3.45;;;;;;;21.20;41.02;95289.63;5037995;28;20486;-78
2023/07/28 09:08:17;;;;;;;11.20;3.13;;;;;;;21.20;40.99;95281.53;5036775;28;20515;-78
2023/07/28 09:10:49;;;;;;;7.38;3.45;;;;;;;21.21;42.04;95256.09;5047287;28;20044;-78
2023/07/28 09:13:17;;;;;;;10.25;3.17;;;;;;;21.58;41.19;95291.94;5047119;28;20033;-78
2023/07/28 09:15:42;;;;;;;7.28;3.35;;;;;;;21.62;41.54;95294.72;5034852;28;20503;-76
2023/07/28 09:18:12;;;;;;;5.65;2.75;;;;;;;21.63;40.86;95285.50;5032905;28;20095;-76
2023/07/28 09:20:39;;;;;;;10.00;3.55;;;;;;;21.59;40.55;95282.69;5032774;28;20045;-76
2023/07/28 09:23:07;;;;;;;13.43;2.97;;;;;;;21.76;41.53;95270.84;5048663;28;20067;-76
2023/07/28 09:25:35;;;;;;;4.55;2.60;;;;;;;21.77;41.01;95253.53;5034711;28;20040;-76
2023/07/28 09:28:01;;;;;;;9.45;3.13;;;;;;;21.83;39.56;95250.25;5051370;28;20072;-77
2023/07/28 09:30:42;;;;;;;8.93;3.17;;;;;;;21.86;39.62;95260.38;5032182;28;20416;-76
2023/07/28 09:33:07;;;;;;;7.90;3.15;;;;;;;21.84;39.80;95237.53;5051103;28;20197;-76
2023/07/28 09:35:33;;;;;;;3.60;2.53;;;;;;;21.92;39.79;95245.50;5050841;28;20032;-76
2023/07/28 09:37:59;;;;;;;6.80;2.60;;;;;;;22.00;39.97;95237.63;5042936;28;20084;-76
2023/07/28 09:40:27;;;;;;;5.65;3.17;;;;;;;22.17;39.66;95254.31;5039896;28;20035;-76
2023/07/28 09:42:54;;;;;;;12.45;2.83;;;;;;;22.18;39.02;95241.59;5050377;28;20024;-77
2023/07/28 09:45:21;;;;;;;6.88;2.97;;;;;;;22.31;39.66;95232.28;5042971;28;20043;-76
2023/07/28 09:47:50;;;;;;;13.23;3.45;;;;;;;22.38;39.70;95234.38;5039135;28;20075;-76
2023/07/28 09:50:17;;;;;;;5.63;2.80;;;;;;;22.44;38.50;95230.28;5031988;28;20607;-77
2023/07/28 09:52:46;;;;;;;10.40;3.40;;;;;;;22.47;38.37;95208.78;5050041;28;20037;-77
2023/07/28 09:55:15;;;;;;;4.63;2.60;;;;;;;22.91;36.79;95217.59;5035060;28;20458;-77
2023/07/28 09:57:51;;;;;;;4.55;3.05;;;;;;;23.46;36.48;95221.16;5050952;28;20041;-78
2023/07/28 10:00:18;;;;;;;9.25;2.78;;;;;;;24.34;34.91;95210.56;5035294;28;20044;-78
2023/07/28 10:02:45;;;;;;;9.18;3.25;;;;;;;25.13;33.33;95197.16;5042053;28;20131;-78
2023/07/28 10:05:11;;;;;;;8.77;3.28;;;;;;;26.04;32.63;95183.25;5049153;28;20034;-78
2023/07/28 10:07:40;;;;;;;6.82;3.45;;;;;;;27.11;30.45;95220.41;5043392;28;20039;-78
2023/07/28 10:10:10;;;;;;;6.35;3.00;;;;;;;27.53;29.49;95209.84;5057268;28;20072;-78
2023/07/28 10:12:50;;;;;;;9.90;2.97;;;;;;;28.11;28.38;95184.38;5069842;28;20036;-78
2023/07/28 10:15:20;;;;;;;9.27;3.38;;;;;;;28.99;27.06;95211.03;5047638;28;20041;-78
2023/07/28 10:17:57;;;;;;;11.88;3.45;;;;;;;29.71;26.80;95209.78;5056127;28;20041;-78
2023/07/28 10:20:41;;;;;;;12.93;3.03;;;;;;;30.21;25.89;95209.63;5030923;28;20033;-78
2023/07/28 10:23:20;;;;;;;6.95;2.65;;;;;;;30.57;25.39;95191.84;5046495;28;20037;-78
2023/07/28 10:25:45;;;;;;;7.88;3.15;;;;;;;30.92;25.06;95176.31;5043014;28;20103;-77
2023/07/28 10:28:31;;;;;;;9.90;3.50;;;;;;;31.01;24.51;95212.22;5048030;28;20466;-77
2023/07/28 10:30:58;;;;;;;10.70;2.60;;;;;;;30.84;24.33;95199.44;5033560;28;20032;-77
2023/07/28 10:33:31;;;;;;;6.45;2.80;;;;;;;31.11;24.26;95191.44;5033067;28;20098;-76
2023/07/28 10:36:14;;;;;;;9.85;3.28;;;;;;;31.33;24.52;95185.38;5031848;28;20082;-76
2023/07/28 10:38:40;;;;;;;11.90;2.78;;;;;;;31.40;24.72;95171.59;5050431;28;20068;-77
2023/07/28 10:41:07;;;;;;;14.48;2.88;;;;;;;32.03;24.24;95191.28;5034119;28;20102;-77
2023/07/28 10:43:33;;;;;;;9.85;3.78;;;;;;;32.29;23.41;95175.25;5032852;28;20032;-77
2023/07/28 10:46:00;;;;;;;15.13;3.22;;;;;;;32.59;23.59;95186.19;5033078;28;20037;-77
2023/07/28 10:48:25;;;;;;;10.45;3.50;;;;;;;32.67;22.75;95176.66;5048681;28;20033;-78
2023/07/28 10:50:51;;;;;;;9.70;3.45;;;;;;;32.55;22.49;95160.78;5042555;28;20116;-78
2023/07/28 10:53:17;;;;;;;7.60;3.08;;;;;;;32.65;22.32;95168.09;5048511;28;20063;-77
2023/07/28 10:55:44;;;;;;;9.40;2.72;;;;;;;32.67;22.84;95165.69;5033530;28;20033;-77
2023/07/28 10:58:09;;;;;;;11.10;3.22;;;;;;;32.50;22.46;95164.00;5033311;28;20033;-77
2023/07/28 11:00:35;;;;;;;11.88;3.20;;;;;;;31.73;23.55;95163.81;5043565;28;20429;-77
2023/07/28 11:03:01;;;;;;;6.07;2.80;;;;;;;31.63;23.27;95143.56;5033278;28;20040;-77
2023/07/28 11:05:28;;;;;;;9.63;2.80;;;;;;;31.82;23.08;95140.19;5051180;28;20033;-77
2023/07/28 11:07:56;;;;;;;8.13;2.80;;;;;;;32.01;23.25;95146.22;5044304;28;20029;-77
2023/07/28 11:10:23;;;;;;;13.10;2.95;;;;;;;31.61;23.48;95162.38;5037651;28;20029;-77
2023/07/28 11:12:50;;;;;;;6.28;2.70;;;;;;;30.94;24.60;95155.56;5057265;28;20040;-76
2023/07/28 11:15:17;;;;;;;11.85;4.15;;;;;;;31.27;23.75;95123.97;5033228;28;20037;-77
2023/07/28 11:17:48;;;;;;;8.45;2.90;;;;;;;31.67;23.33;95132.53;5032373;28;20064;-77
2023/07/28 11:20:17;;;;;;;12.05;3.17;;;;;;;31.89;23.45;95135.81;5025064;28;20032;-77
2023/07/28 11:22:44;;;;;;;7.28;2.80;;;;;;;31.85;23.71;95133.09;5051615;28;20047;-76
2023/07/28 11:25:10;;;;;;;13.57;2.85;;;;;;;31.68;23.89;95112.16;5046570;28;20031;-77
2023/07/28 11:27:39;;;;;;;8.63;2.88;;;;;;;31.46;23.76;95117.09;5028223;28;20045;-78